Time;durP1;ratioP1;P1;durP2;ratioP2;P2;SDS_P1;SDS_P2;PMS_P1;PMS_P2;Temp;Humidity;BMP_temperature;BMP_pressure;BME280_temperature;BME280_humidity;BME280_pressure;Samples;Min_cycle;Max_cycle;Signal;HPM_P1;HPM_P2
2022/01/02 00:02:16;;;;;;;;;27.00;22.75;;;;;12.71;68.69;101713.50;5073110;28;45472;-63
2022/01/02 00:04:49;;;;;;;;;25.25;21.75;;;;;12.70;68.67;101717.94;5070999;28;45414;-62
2022/01/02 00:07:22;;;;;;;;;28.00;26.75;;;;;12.71;68.72;101719.63;5074954;28;46417;-64
2022/01/02 00:09:52;;;;;;;;;23.00;22.75;;;;;12.71;68.42;101711.69;5066468;27;45473;-63
2022/01/02 00:12:22;;;;;;;;;30.25;24.25;;;;;12.74;68.43;101708.06;5069918;28;45315;-63
2022/01/02 00:14:52;;;;;;;;;27.25;21.25;;;;;12.74;68.63;101700.97;5070901;28;45428;-64
2022/01/02 00:17:22;;;;;;;;;23.75;22.25;;;;;12.74;68.64;101711.56;5070119;28;46393;-64
2022/01/02 00:19:53;;;;;;;;;23.25;21.00;;;;;12.76;68.66;101720.25;5063533;28;45351;-64
2022/01/02 00:22:24;;;;;;;;;30.00;22.25;;;;;12.75;68.64;101712.41;5067477;28;45322;-64
2022/01/02 00:24:50;;;;;;;;;24.75;23.50;;;;;12.76;68.61;101714.97;5074279;27;45347;-65
2022/01/02 00:27:18;;;;;;;;;26.50;26.50;;;;;12.76;68.59;101714.13;5071116;28;46098;-63
2022/01/02 00:29:43;;;;;;;;;22.00;21.50;;;;;12.76;68.39;101708.81;5070112;28;45337;-61
2022/01/02 00:32:11;;;;;;;;;26.75;23.50;;;;;12.78;68.25;101706.94;5073035;28;45258;-62
2022/01/02 00:34:39;;;;;;;;;25.00;23.75;;;;;12.77;68.28;101706.09;5078163;28;45522;-62
2022/01/02 00:37:06;;;;;;;;;28.50;25.00;;;;;12.79;68.50;101706.00;5072380;28;46405;-62
2022/01/02 00:39:33;;;;;;;;;24.25;20.25;;;;;12.80;68.37;101699.81;5073238;28;45495;-62
2022/01/02 00:42:10;;;;;;;;;26.25;22.50;;;;;12.79;68.30;101698.06;5070307;28;45440;-62
2022/01/02 00:44:58;;;;;;;;;23.75;23.25;;;;;12.80;68.10;101687.44;5067162;28;45593;-62
2022/01/02 00:47:33;;;;;;;;;27.50;24.50;;;;;12.80;68.05;101690.09;5075069;28;45557;-62
2022/01/02 00:50:09;;;;;;;;;27.50;25.25;;;;;12.81;68.26;101691.78;5071242;28;45225;-61
2022/01/02 00:52:40;;;;;;;;;29.25;26.00;;;;;12.82;68.03;101695.28;5069309;28;45546;-63
2022/01/02 00:55:09;;;;;;;;;27.25;21.50;;;;;12.84;68.26;101706.63;5072059;28;45592;-63
2022/01/02 00:57:38;;;;;;;;;26.75;24.00;;;;;12.84;68.25;101701.34;5069699;28;45345;-64
2022/01/02 01:00:06;;;;;;;;;26.50;21.00;;;;;12.85;67.99;101697.75;5071097;28;45307;-65
2022/01/02 01:02:39;;;;;;;;;23.25;21.00;;;;;12.86;68.21;101694.16;5070842;28;45710;-65
2022/01/02 01:05:07;;;;;;;;;20.75;19.50;;;;;12.84;68.03;101683.69;5071356;28;45230;-65
2022/01/02 01:07:34;;;;;;;;;24.00;22.50;;;;;12.86;68.15;101671.22;5071396;28;47309;-63
2022/01/02 01:10:02;;;;;;;;;23.00;21.00;;;;;12.88;67.88;101651.81;5070156;28;45562;-65
2022/01/02 01:12:29;;;;;;;;;23.00;19.00;;;;;12.84;67.88;101643.16;5071012;28;45709;-65
2022/01/02 01:14:54;;;;;;;;;28.00;23.50;;;;;12.80;67.88;101647.78;5071017;28;45495;-64
2022/01/02 01:17:20;;;;;;;;;22.25;20.50;;;;;12.80;67.98;101654.88;5071024;28;46468;-64
2022/01/02 01:19:46;;;;;;;;;21.25;19.50;;;;;12.80;68.04;101646.94;5071074;28;45554;-66
2022/01/02 01:22:12;;;;;;;;;25.25;19.25;;;;;12.81;67.70;101636.25;5070540;28;45436;-65
2022/01/02 01:24:37;;;;;;;;;23.00;21.00;;;;;12.80;67.86;101631.91;5070575;28;45370;-65
2022/01/02 01:27:06;;;;;;;;;16.75;15.00;;;;;12.79;67.97;101626.69;5070079;28;45799;-64
2022/01/02 01:29:34;;;;;;;;;23.50;21.25;;;;;12.78;67.82;101632.91;5073461;28;45458;-64
2022/01/02 01:32:04;;;;;;;;;20.75;19.00;;;;;12.78;67.95;101636.41;5067487;28;45421;-64
2022/01/02 01:34:30;;;;;;;;;21.25;19.00;;;;;12.79;68.11;101646.03;5071236;28;45410;-64
2022/01/02 01:36:56;;;;;;;;;20.75;18.75;;;;;12.79;68.07;101634.63;5070891;28;45445;-62
2022/01/02 01:39:21;;;;;;;;;22.00;18.50;;;;;12.80;67.97;101628.41;5071373;28;45365;-65
2022/01/02 01:41:48;;;;;;;;;20.75;18.50;;;;;12.81;68.02;101627.47;5072167;28;45493;-65
2022/01/02 01:46:40;;;;;;;;;22.75;20.75;;;;;12.82;67.98;101626.53;5074424;28;45334;-63
2022/01/02 01:49:18;;;;;;;;;25.00;20.00;;;;;12.81;67.88;101625.69;5070975;28;45457;-64
2022/01/02 01:51:45;;;;;;;;;25.75;22.25;;;;;12.82;67.76;101621.25;5069564;28;45179;-64
2022/01/02 01:54:11;;;;;;;;;26.50;21.25;;;;;12.82;67.85;101610.69;5071085;28;45385;-63
2022/01/02 01:56:39;;;;;;;;;18.50;16.25;;;;;12.81;67.73;101604.53;5072024;28;45507;-63
2022/01/02 01:59:05;;;;;;;;;20.25;17.25;;;;;12.82;67.58;101602.75;5072571;28;45473;-63
2022/01/02 02:01:31;;;;;;;;;25.75;21.50;;;;;12.79;67.74;101597.59;5071433;28;46490;-62
2022/01/02 02:03:58;;;;;;;;;24.00;19.50;;;;;12.79;67.94;101589.66;5069436;28;45421;-62
2022/01/02 02:06:24;;;;;;;;;25.50;21.25;;;;;12.78;67.81;101598.53;5069873;28;45436;-63
2022/01/02 02:08:52;;;;;;;;;20.50;20.00;;;;;12.77;67.67;101588.91;5069214;28;45533;-63
2022/01/02 02:11:20;;;;;;;;;17.00;15.50;;;;;12.77;67.93;101596.84;5069246;28;45364;-63
2022/01/02 02:13:46;;;;;;;;;20.25;18.50;;;;;12.77;68.07;101589.75;5069831;28;45436;-63
2022/01/02 02:16:12;;;;;;;;;21.50;20.50;;;;;12.78;67.75;101594.09;5070399;28;45390;-63
2022/01/02 02:18:37;;;;;;;;;20.75;19.50;;;;;12.78;67.94;101586.19;5070225;28;45310;-63
2022/01/02 02:21:03;;;;;;;;;22.00;19.00;;;;;12.77;67.81;101576.53;5070410;28;45312;-63
2022/01/02 02:23:29;;;;;;;;;20.75;17.75;;;;;12.78;67.87;101569.47;5072127;28;45389;-63
2022/01/02 02:25:54;;;;;;;;;25.00;24.00;;;;;12.79;67.77;101569.38;5072436;28;45275;-63
2022/01/02 02:28:25;;;;;;;;;22.75;20.75;;;;;12.79;67.79;101560.59;5071446;28;45373;-63
2022/01/02 02:30:51;;;;;;;;;21.25;17.00;;;;;12.77;67.83;101555.41;5067387;28;46888;-63
2022/01/02 02:33:17;;;;;;;;;20.75;17.50;;;;;12.76;67.44;101555.47;5069615;28;45445;-63
2022/01/02 02:35:46;;;;;;;;;25.00;22.00;;;;;12.76;67.95;101556.34;5070897;28;46384;-63
2022/01/02 02:38:13;;;;;;;;;21.25;19.50;;;;;12.77;67.95;101557.19;5071716;28;45383;-63
2022/01/02 02:40:40;;;;;;;;;22.00;19.75;;;;;12.76;67.92;101544.91;5067274;28;45224;-63
2022/01/02 02:43:20;;;;;;;;;22.25;18.50;;;;;12.77;67.88;101542.19;5069616;28;45453;-63
2022/01/02 02:51:22;;;;;;;;;21.25;17.75;;;;;12.79;67.74;101515.66;5072492;28;45421;-65
2022/01/02 02:53:50;;;;;;;;;18.50;18.00;;;;;12.79;67.63;101515.66;5067709;28;45250;-66
2022/01/02 02:56:21;;;;;;;;;21.50;18.00;;;;;12.79;67.72;101515.66;5069662;28;46229;-65
2022/01/02 02:58:49;;;;;;;;;20.25;18.25;;;;;12.79;67.55;101499.78;5069814;28;46363;-65
2022/01/02 03:01:17;;;;;;;;;15.25;13.50;;;;;12.80;67.46;101502.38;5070121;28;45499;-65
2022/01/02 03:03:44;;;;;;;;;20.00;15.75;;;;;12.80;67.45;101507.66;5069274;28;45527;-65
2022/01/02 03:06:10;;;;;;;;;14.75;12.50;;;;;12.80;67.33;101499.72;5068537;28;45267;-66
2022/01/02 03:08:37;;;;;;;;;16.50;14.00;;;;;12.79;67.52;101500.63;5068363;28;45162;-65
2022/01/02 03:11:07;;;;;;;;;18.25;16.00;;;;;12.76;67.39;101514.03;5069231;28;45165;-65
2022/01/02 03:13:33;;;;;;;;;12.75;12.00;;;;;12.76;67.55;101500.81;5072285;28;45331;-65
2022/01/02 03:15:58;;;;;;;;;21.75;16.75;;;;;12.75;67.52;101508.84;5073708;28;46140;-65
2022/01/02 03:18:24;;;;;;;;;20.25;18.00;;;;;12.75;67.65;101501.75;5074633;28;45440;-65
2022/01/02 03:20:49;;;;;;;;;20.75;17.25;;;;;12.76;67.27;101494.69;5075048;28;45204;-65
2022/01/02 03:23:15;;;;;;;;;18.00;14.75;;;;;12.76;67.47;101500.81;5073661;28;45635;-65
2022/01/02 03:25:40;;;;;;;;;14.00;14.00;;;;;12.78;67.25;101509.50;5073116;28;46014;-65
2022/01/02 03:28:06;;;;;;;;;13.75;13.75;;;;;12.76;67.21;101515.84;5074728;28;45196;-65
2022/01/02 03:30:31;;;;;;;;;14.00;12.75;;;;;12.76;67.45;101507.91;5072231;28;45418;-66
2022/01/02 03:32:57;;;;;;;;;18.25;14.50;;;;;12.76;67.65;101527.25;5073546;28;45612;-64
2022/01/02 03:35:22;;;;;;;;;16.50;15.25;;;;;12.78;67.34;101519.22;5073357;28;46331;-64
2022/01/02 03:37:48;;;;;;;;;18.75;15.50;;;;;12.79;67.36;101518.28;5073424;28;45447;-64
2022/01/02 03:40:13;;;;;;;;;14.50;14.25;;;;;12.79;67.53;101513.84;5071536;28;45518;-61
2022/01/02 03:42:39;;;;;;;;;16.75;14.50;;;;;12.80;67.08;101514.72;5072893;28;45618;-65
2022/01/02 03:45:06;;;;;;;;;14.00;13.75;;;;;12.82;67.17;101518.13;5072665;28;45980;-65
2022/01/02 03:47:31;;;;;;;;;13.50;12.75;;;;;12.84;67.02;101513.59;5074074;28;45494;-65
2022/01/02 03:49:59;;;;;;;;;18.25;14.00;;;;;12.86;67.27;101506.44;5074383;28;45411;-65
2022/01/02 03:52:26;;;;;;;;;14.00;14.00;;;;;12.88;67.31;101509.88;5074264;28;45481;-65
2022/01/02 03:54:52;;;;;;;;;15.75;13.50;;;;;12.90;67.14;101499.19;5073461;28;46149;-65
2022/01/02 03:57:18;;;;;;;;;17.75;14.75;;;;;12.93;66.89;101491.06;5073452;28;45330;-65
2022/01/02 03:59:43;;;;;;;;;13.75;13.50;;;;;12.93;66.97;101486.63;5073517;28;45350;-65
2022/01/02 04:02:09;;;;;;;;;19.00;15.50;;;;;12.94;67.00;101485.69;5074860;28;45477;-65
2022/01/02 04:04:34;;;;;;;;;17.75;13.00;;;;;12.95;66.76;101482.09;5073902;28;46292;-65
2022/01/02 04:07:00;;;;;;;;;14.25;12.25;;;;;12.96;66.83;101461.84;5072779;28;45389;-65
2022/01/02 04:09:26;;;;;;;;;19.25;16.00;;;;;12.94;66.85;101464.53;5072306;28;45311;-65
2022/01/02 04:11:51;;;;;;;;;19.75;13.25;;;;;12.97;66.88;101474.09;5071608;28;45548;-65
2022/01/02 04:14:17;;;;;;;;;15.50;13.50;;;;;12.99;66.59;101466.94;5071126;28;46417;-65
2022/01/02 04:16:42;;;;;;;;;17.50;14.75;;;;;12.99;66.58;101482.81;5071727;28;45673;-65
2022/01/02 04:19:07;;;;;;;;;16.25;13.00;;;;;12.98;66.39;101481.94;5072169;28;45316;-65
2022/01/02 04:21:33;;;;;;;;;19.25;13.00;;;;;12.98;66.63;101459.94;5071724;28;45332;-65
2022/01/02 04:23:59;;;;;;;;;18.25;15.00;;;;;12.98;66.62;101463.44;5071096;28;45312;-65
2022/01/02 04:26:24;;;;;;;;;18.75;15.25;;;;;12.97;66.35;101443.22;5070382;28;45342;-65
2022/01/02 04:28:50;;;;;;;;;19.00;17.25;;;;;13.00;66.59;101456.25;5074334;28;45233;-65
2022/01/02 04:31:15;;;;;;;;;17.00;15.00;;;;;13.01;66.33;101470.34;5073307;28;45426;-65
2022/01/02 04:33:41;;;;;;;;;19.00;12.50;;;;;13.02;66.48;101459.66;5072399;28;45352;-65
2022/01/02 04:36:07;;;;;;;;;16.00;15.25;;;;;13.02;66.21;101462.31;5072587;28;45336;-65
2022/01/02 04:38:34;;;;;;;;;14.00;14.00;;;;;13.02;66.40;101449.06;5073089;28;45329;-65
2022/01/02 04:40:59;;;;;;;;;12.25;10.50;;;;;13.03;66.12;101434.94;5070920;28;45682;-65
2022/01/02 04:43:25;;;;;;;;;17.50;14.25;;;;;13.04;66.01;101441.06;5070689;28;46094;-65
2022/01/02 04:45:50;;;;;;;;;16.00;15.00;;;;;13.04;65.83;101422.56;5071037;28;45429;-65
2022/01/02 04:48:16;;;;;;;;;12.25;12.25;;;;;13.06;65.72;101428.59;5072625;28;45716;-65
2022/01/02 04:50:41;;;;;;;;;15.00;11.75;;;;;13.04;65.76;101441.06;5072225;28;45451;-65
2022/01/02 04:53:07;;;;;;;;;13.75;13.75;;;;;13.03;65.67;101445.53;5073510;28;45625;-65
2022/01/02 04:55:32;;;;;;;;;15.25;14.75;;;;;13.04;65.87;101415.47;5073802;28;45410;-65
2022/01/02 04:57:58;;;;;;;;;12.75;11.25;;;;;13.06;65.81;101418.03;5072755;28;45448;-65
2022/01/02 05:00:23;;;;;;;;;12.50;12.00;;;;;13.07;65.37;101404.72;5073836;28;45647;-65
2022/01/02 05:02:49;;;;;;;;;12.50;10.75;;;;;13.09;65.78;101389.59;5071288;28;45433;-65
2022/01/02 05:05:16;;;;;;;;;11.75;11.75;;;;;13.11;65.50;101390.38;5070465;28;45196;-65
2022/01/02 05:07:42;;;;;;;;;11.00;11.00;;;;;13.13;65.42;101359.38;5070727;28;45229;-65
2022/01/02 05:10:08;;;;;;;;;13.75;11.75;;;;;13.13;65.51;101369.13;5069389;28;45327;-65
2022/01/02 05:12:34;;;;;;;;;11.00;10.00;;;;;13.12;65.22;101394.72;5071490;28;45467;-65
2022/01/02 05:15:00;;;;;;;;;13.50;11.75;;;;;13.10;65.32;101383.34;5070380;28;45727;-65
2022/01/02 05:17:26;;;;;;;;;11.50;11.50;;;;;13.11;65.57;101406.25;5070615;28;45356;-65
2022/01/02 05:19:51;;;;;;;;;20.25;16.75;;;;;13.09;65.11;101400.16;5069047;28;45328;-65
2022/01/02 05:22:17;;;;;;;;;10.00;9.50;;;;;13.11;65.40;101418.59;5070765;28;46395;-65
2022/01/02 05:24:42;;;;;;;;;14.50;12.25;;;;;13.11;65.25;101416.81;5069548;28;45260;-65
2022/01/02 05:27:07;;;;;;;;;13.00;13.00;;;;;13.13;65.30;101401.72;5073124;28;45531;-65
2022/01/02 05:29:33;;;;;;;;;11.50;11.00;;;;;13.14;65.38;101399.91;5072963;28;45422;-65
2022/01/02 05:31:59;;;;;;;;;11.25;10.50;;;;;13.14;65.12;101386.69;5070128;28;46091;-65
2022/01/02 05:34:24;;;;;;;;;10.50;8.50;;;;;13.14;65.18;101387.53;5070744;28;45485;-65
2022/01/02 05:36:50;;;;;;;;;13.25;10.00;;;;;13.17;65.27;101389.13;5069718;28;45588;-65
2022/01/02 05:39:17;;;;;;;;;10.50;9.00;;;;;13.19;65.12;101395.19;5071878;28;45588;-64
2022/01/02 05:41:43;;;;;;;;;14.25;9.00;;;;;13.18;64.79;101389.97;5071643;28;46319;-65
2022/01/02 05:44:08;;;;;;;;;16.25;10.00;;;;;13.20;64.80;101401.38;5071238;28;45346;-65
2022/01/02 05:46:34;;;;;;;;;12.75;12.00;;;;;13.21;64.55;101385.41;5070088;28;45216;-65
2022/01/02 05:48:59;;;;;;;;;10.50;9.25;;;;;13.23;64.46;101380.03;5067086;28;45472;-65
2022/01/02 05:51:25;;;;;;;;;13.00;9.00;;;;;13.25;64.66;101384.25;5071961;28;46051;-65
2022/01/02 05:53:50;;;;;;;;;10.50;10.50;;;;;13.26;64.47;101388.63;5072805;28;46473;-65
2022/01/02 05:56:15;;;;;;;;;10.50;10.50;;;;;13.27;64.27;101395.63;5072820;28;45506;-65
2022/01/02 05:58:41;;;;;;;;;11.50;10.50;;;;;13.29;64.35;101399.03;5069555;28;45423;-65
2022/01/02 06:01:06;;;;;;;;;10.25;9.50;;;;;13.31;64.36;101398.94;5071665;28;46678;-65
2022/01/02 06:03:32;;;;;;;;;8.50;7.50;;;;;13.32;64.25;101406.78;5072412;28;45455;-65
2022/01/02 06:05:58;;;;;;;;;9.25;9.25;;;;;13.33;64.23;101395.25;5070914;28;45472;-65
2022/01/02 06:08:23;;;;;;;;;10.25;9.00;;;;;13.36;64.17;101392.44;5070971;28;45963;-65
2022/01/02 06:10:49;;;;;;;;;9.50;7.25;;;;;13.37;64.09;101388.00;5069547;28;46027;-65
2022/01/02 06:13:15;;;;;;;;;9.00;9.00;;;;;13.37;63.95;101394.13;5068577;28;45375;-65
2022/01/02 06:15:40;;;;;;;;;8.75;6.75;;;;;13.40;64.07;101398.38;5070534;28;45409;-65
2022/01/02 06:18:06;;;;;;;;;11.00;9.75;;;;;13.41;63.82;101392.13;5069561;28;45375;-65
2022/01/02 06:20:31;;;;;;;;;9.50;9.00;;;;;13.43;64.19;101382.31;5071800;28;46053;-65
2022/01/02 06:22:57;;;;;;;;;9.50;9.25;;;;;13.45;63.80;101376.94;5072570;28;45207;-65
2022/01/02 06:25:22;;;;;;;;;11.50;10.75;;;;;13.47;63.60;101375.03;5071081;28;45156;-65
2022/01/02 06:27:49;;;;;;;;;12.25;9.25;;;;;13.48;63.78;101377.59;5072768;28;45287;-65
2022/01/02 06:30:14;;;;;;;;;10.25;9.50;;;;;13.48;63.84;101377.59;5070640;28;45394;-65
2022/01/02 06:32:40;;;;;;;;;8.50;8.50;;;;;13.52;63.81;101383.56;5071397;28;45330;-65
2022/01/02 06:35:06;;;;;;;;;10.00;9.25;;;;;13.53;63.94;101398.50;5069821;28;45425;-65
2022/01/02 06:37:31;;;;;;;;;11.50;9.50;;;;;13.53;63.56;101412.56;5070399;28;45535;-65
2022/01/02 06:39:57;;;;;;;;;10.50;10.00;;;;;13.50;63.72;101406.59;5069482;28;46015;-65
2022/01/02 06:42:23;;;;;;;;;7.00;7.00;;;;;13.44;63.67;101418.44;5068575;28;45355;-65
2022/01/02 06:44:49;;;;;;;;;8.75;8.75;;;;;13.44;63.26;101428.16;5071047;28;45455;-65
2022/01/02 06:47:14;;;;;;;;;10.25;9.00;;;;;13.43;63.36;101427.31;5071561;28;45187;-65
2022/01/02 06:49:41;;;;;;;;;9.50;9.50;;;;;13.39;63.77;101416.03;5073179;28;46167;-65
2022/01/02 06:52:07;;;;;;;;;7.00;6.25;;;;;13.37;63.69;101428.53;5073459;28;45355;-65
2022/01/02 06:54:33;;;;;;;;;7.50;7.25;;;;;13.34;63.82;101414.59;5070318;28;45299;-65
2022/01/02 06:56:59;;;;;;;;;7.00;7.00;;;;;13.29;63.89;101430.78;5069021;28;45327;-64
2022/01/02 06:59:24;;;;;;;;;9.75;7.25;;;;;13.26;63.90;101424.81;5071046;28;45357;-65
2022/01/02 07:01:50;;;;;;;;;7.25;7.25;;;;;13.23;64.11;101425.00;5072978;28;45460;-65
2022/01/02 07:04:15;;;;;;;;;9.25;9.00;;;;;13.21;64.02;101429.53;5070763;28;45304;-65
2022/01/02 07:06:41;;;;;;;;;10.25;7.25;;;;;13.18;64.25;101427.03;5071300;28;45533;-65
2022/01/02 07:09:06;;;;;;;;;9.25;8.00;;;;;13.14;64.46;101442.22;5068956;28;45884;-65
2022/01/02 07:11:32;;;;;;;;;13.50;10.00;;;;;13.10;64.38;101446.84;5067360;28;46438;-65
2022/01/02 07:13:57;;;;;;;;;9.75;9.75;;;;;13.10;64.27;101424.81;5069738;28;45483;-64
2022/01/02 07:16:23;;;;;;;;;10.25;9.00;;;;;13.16;64.76;101432.41;5068129;28;45418;-64
2022/01/02 07:18:48;;;;;;;;;11.00;9.75;;;;;13.22;64.75;101424.16;5070498;28;46057;-64
2022/01/02 07:21:14;;;;;;;;;11.50;8.00;;;;;13.26;64.63;101428.28;5071937;28;45473;-64
2022/01/02 07:23:39;;;;;;;;;7.50;7.50;;;;;13.28;64.46;101421.16;5070612;28;45477;-64
2022/01/02 07:26:05;;;;;;;;;9.00;9.00;;;;;13.25;64.58;101425.75;5069769;28;45401;-64
2022/01/02 07:28:33;;;;;;;;;9.25;8.00;;;;;13.25;64.62;101431.03;5069126;28;45892;-65
2022/01/02 07:30:59;;;;;;;;;9.00;7.75;;;;;13.28;64.82;101437.03;5067957;27;45302;-64
2022/01/02 07:33:26;;;;;;;;;9.25;7.00;;;;;13.29;64.93;101422.00;5069468;28;45429;-64
2022/01/02 07:35:51;;;;;;;;;10.00;6.75;;;;;13.29;64.96;101420.19;5070992;28;45503;-64
2022/01/02 07:38:17;;;;;;;;;9.50;9.00;;;;;13.30;64.99;101421.03;5070117;28;45260;-64
2022/01/02 07:40:42;;;;;;;;;10.25;8.25;;;;;13.31;65.03;101428.03;5066047;28;45299;-65
2022/01/02 07:43:08;;;;;;;;;12.75;9.50;;;;;13.34;65.36;101433.13;5069543;28;45346;-64
2022/01/02 07:45:33;;;;;;;;;12.00;10.00;;;;;13.37;65.22;101443.56;5069493;28;45475;-65
2022/01/02 07:47:59;;;;;;;;;9.75;7.50;;;;;13.39;65.38;101431.94;5069501;28;46130;-64
2022/01/02 07:50:24;;;;;;;;;10.00;7.25;;;;;13.38;65.28;101430.22;5069936;28;45326;-64
2022/01/02 07:52:52;;;;;;;;;10.25;9.25;;;;;13.37;65.42;101443.56;5068776;28;45304;-64
2022/01/02 07:55:18;;;;;;;;;10.75;10.00;;;;;13.32;65.63;101456.19;5069619;28;45346;-64
2022/01/02 07:57:44;;;;;;;;;10.50;10.00;;;;;13.30;65.82;101458.94;5066073;27;45580;-65
2022/01/02 08:00:10;;;;;;;;;12.00;10.00;;;;;13.27;65.92;101451.19;5075642;28;45518;-65
2022/01/02 08:02:36;;;;;;;;;6.75;6.75;;;;;13.27;66.09;101469.72;5071206;27;45407;-64
2022/01/02 08:05:01;;;;;;;;;13.00;12.00;;;;;13.23;66.11;101467.31;5075367;28;45517;-64
2022/01/02 08:07:27;;;;;;;;;10.75;10.75;;;;;13.23;66.21;101473.47;5072880;28;46207;-65
2022/01/02 08:09:52;;;;;;;;;10.25;8.00;;;;;13.22;66.25;101482.34;5072043;27;45472;-64
2022/01/02 08:12:18;;;;;;;;;10.25;7.75;;;;;13.20;66.39;101492.19;5072461;28;45473;-64
2022/01/02 08:14:43;;;;;;;;;11.75;7.00;;;;;13.19;66.37;101502.78;5071068;28;46381;-64
2022/01/02 08:17:09;;;;;;;;;13.50;9.25;;;;;13.18;66.79;101504.59;5073071;28;45467;-64
2022/01/02 08:19:34;;;;;;;;;14.00;7.25;;;;;13.17;66.55;101507.31;5071109;28;45424;-64
2022/01/02 08:21:59;;;;;;;;;11.50;9.25;;;;;13.18;66.64;101511.66;5072024;28;45347;-65
2022/01/02 08:24:25;;;;;;;;;10.00;7.25;;;;;13.17;66.91;101513.47;5073584;28;45605;-64
2022/01/02 08:26:51;;;;;;;;;9.75;9.00;;;;;13.19;66.79;101516.88;5072876;28;46159;-64
2022/01/02 08:29:17;;;;;;;;;11.50;10.50;;;;;13.20;66.90;101515.13;5069401;28;45470;-65
2022/01/02 08:31:43;;;;;;;;;10.50;8.00;;;;;13.23;67.13;101507.88;5071519;28;45506;-65
2022/01/02 08:34:08;;;;;;;;;12.50;10.25;;;;;13.22;67.17;101511.47;5070920;27;45414;-65
2022/01/02 08:36:34;;;;;;;;;15.00;9.50;;;;;13.23;67.24;101515.81;5072339;28;46153;-65
2022/01/02 08:38:59;;;;;;;;;7.00;6.50;;;;;13.25;67.33;101513.06;5070659;28;45554;-65
2022/01/02 08:41:25;;;;;;;;;13.25;9.75;;;;;13.25;67.37;101507.78;5073560;28;45331;-65
2022/01/02 08:43:50;;;;;;;;;12.00;9.50;;;;;13.26;67.58;101514.75;5072815;28;45562;-65
2022/01/02 08:46:16;;;;;;;;;13.00;9.00;;;;;13.26;67.56;101512.13;5074453;28;45321;-65
2022/01/02 08:48:41;;;;;;;;;9.75;9.00;;;;;13.27;67.44;101519.09;5070702;28;45248;-64
2022/01/02 08:51:07;;;;;;;;;11.75;8.75;;;;;13.27;67.28;101508.53;5071880;28;45340;-64
2022/01/02 08:53:34;;;;;;;;;6.25;6.25;;;;;13.28;67.54;101512.91;5073727;28;45401;-64
2022/01/02 08:56:00;;;;;;;;;10.00;7.50;;;;;13.28;67.98;101513.75;5072536;28;45362;-65
2022/01/02 08:58:25;;;;;;;;;14.50;10.00;;;;;13.29;67.95;101520.75;5072419;28;45327;-64
2022/01/02 09:00:51;;;;;;;;;10.00;8.50;;;;;13.30;67.99;101519.81;5072572;28;45497;-64
2022/01/02 09:03:17;;;;;;;;;10.00;8.75;;;;;13.32;68.25;101527.63;5071023;28;45299;-65
2022/01/02 09:05:43;;;;;;;;;11.25;8.25;;;;;13.31;68.21;101524.16;5071303;27;46703;-63
2022/01/02 09:08:08;;;;;;;;;10.75;10.00;;;;;13.33;68.16;101538.13;5068287;27;45457;-63
2022/01/02 09:10:34;;;;;;;;;13.75;11.50;;;;;13.35;68.17;101540.69;5070273;27;45480;-62
2022/01/02 09:12:59;;;;;;;;;11.00;11.00;;;;;13.36;68.31;101532.69;5069440;27;45338;-63
2022/01/02 09:15:25;;;;;;;;;11.00;9.75;;;;;13.36;68.43;101535.31;5074163;27;45380;-62
2022/01/02 09:17:51;;;;;;;;;6.25;5.25;;;;;13.37;68.79;101541.47;5069647;27;45406;-63
2022/01/02 09:20:17;;;;;;;;;11.00;9.25;;;;;13.38;68.52;101540.53;5070864;27;45556;-62
2022/01/02 09:22:44;;;;;;;;;11.25;9.75;;;;;13.40;68.64;101551.88;5071239;28;45607;-60
2022/01/02 09:25:10;;;;;;;;;12.00;9.50;;;;;13.41;68.49;101554.41;5075756;28;45594;-61
2022/01/02 09:27:37;;;;;;;;;13.00;11.00;;;;;13.44;68.55;101560.50;5071382;27;45469;-62
2022/01/02 09:30:07;;;;;;;;;11.75;9.00;;;;;13.44;68.77;101561.34;5070402;27;45460;-63
2022/01/02 09:32:34;;;;;;;;;11.25;9.00;;;;;13.46;68.75;101567.41;5069535;28;45390;-62
2022/01/02 09:35:01;;;;;;;;;6.75;3.00;;;;;13.47;68.83;101561.16;5072385;28;45478;-63
2022/01/02 09:37:27;;;;;;;;;9.50;9.00;;;;;13.49;68.75;101561.91;5080955;28;45291;-58
2022/01/02 09:39:53;;;;;;;;;13.00;8.50;;;;;13.52;68.75;101552.97;5077333;27;45410;-57
2022/01/02 09:42:19;;;;;;;;;11.50;10.50;;;;;13.53;68.43;101541.44;5071678;28;45490;-58
2022/01/02 09:44:44;;;;;;;;;8.00;7.25;;;;;13.56;68.66;101552.69;5071661;27;46174;-61
2022/01/02 09:47:12;;;;;;;;;6.25;5.00;;;;;13.59;68.85;101551.66;5069575;28;45444;-70
2022/01/02 09:49:41;;;;;;;;;9.75;8.25;;;;;13.62;68.76;101554.97;5069509;28;45534;-69
2022/01/02 09:52:08;;;;;;;;;10.00;8.25;;;;;13.66;68.46;101559.13;5070378;28;45512;-60
2022/01/02 09:54:34;;;;;;;;;13.25;8.00;;;;;13.72;68.44;101565.00;5070009;27;45475;-63
2022/01/02 09:57:01;;;;;;;;;7.25;7.25;;;;;13.75;68.63;101560.41;5074594;27;45486;-63
2022/01/02 09:59:27;;;;;;;;;7.75;6.75;;;;;13.80;68.73;101560.09;5071022;28;45310;-63
2022/01/02 10:01:53;;;;;;;;;12.75;7.75;;;;;13.86;68.23;101554.44;5069923;28;45584;-64
2022/01/02 10:04:36;;;;;;;;;11.00;9.25;;;;;13.91;68.27;101563.84;5069196;27;45940;-63
2022/01/02 10:07:03;;;;;;;;;13.25;6.75;;;;;13.97;68.28;101565.25;5070697;28;45378;-64
2022/01/02 10:09:38;;;;;;;;;6.50;6.50;;;;;14.01;68.26;101574.72;5071779;27;45299;-58
2022/01/02 10:12:27;;;;;;;;;9.50;8.00;;;;;14.06;68.11;101561.19;5066771;28;45513;-68
2022/01/02 10:15:11;;;;;;;;;11.75;7.00;;;;;14.11;67.98;101567.91;5068022;27;45649;-68
2022/01/02 10:18:07;;;;;;;;;7.25;6.25;;;;;14.18;67.77;101568.41;5070563;28;45457;-68
2022/01/02 10:20:38;;;;;;;;;9.00;7.75;;;;;14.25;67.79;101567.94;5069623;28;45294;-67
2022/01/02 10:23:08;;;;;;;;;6.00;4.50;;;;;14.34;67.63;101557.72;5068525;28;45454;-67
2022/01/02 10:25:41;;;;;;;;;9.25;6.75;;;;;14.43;67.56;101562.44;5068157;27;46019;-67
2022/01/02 10:28:22;;;;;;;;;7.75;6.00;;;;;14.52;67.17;101559.22;5067626;27;45334;-66
2022/01/02 10:30:49;;;;;;;;;6.75;6.75;;;;;14.63;67.10;101564.72;5071312;28;45351;-66
2022/01/02 10:33:16;;;;;;;;;6.00;5.00;;;;;14.75;67.08;101571.03;5078217;28;45491;-64
2022/01/02 10:35:42;;;;;;;;;13.75;6.75;;;;;14.89;66.61;101570.19;5075218;27;45333;-65
2022/01/02 10:38:15;;;;;;;;;6.00;4.75;;;;;15.01;66.46;101567.59;5061041;27;45161;-65
2022/01/02 10:40:42;;;;;;;;;4.25;4.25;;;;;15.10;66.22;101566.16;5070958;28;45322;-66
2022/01/02 10:43:27;;;;;;;;;5.50;4.00;;;;;15.16;65.92;101567.53;5068820;27;45488;-67
2022/01/02 10:45:55;;;;;;;;;7.00;5.25;;;;;15.22;65.94;101562.69;5076687;28;47948;-66
2022/01/02 10:48:36;;;;;;;;;5.50;5.00;;;;;15.25;65.70;101566.94;5069229;28;45331;-64
2022/01/02 10:51:17;;;;;;;;;6.50;4.25;;;;;15.31;65.50;101571.84;5067901;28;45390;-63
2022/01/02 10:53:54;;;;;;;;;4.25;3.75;;;;;15.37;65.58;101563.47;5070829;28;45369;-63
2022/01/02 10:56:22;;;;;;;;;5.75;2.50;;;;;15.38;65.30;101562.50;5070948;28;45331;-63
2022/01/02 10:58:48;;;;;;;;;3.00;3.00;;;;;15.40;65.26;101568.56;5067888;28;45651;-63
2022/01/02 11:01:15;;;;;;;;;3.75;3.75;;;;;15.41;65.00;101566.78;5070130;28;45189;-62
2022/01/02 11:03:44;;;;;;;;;5.00;3.00;;;;;15.45;64.93;101557.66;5070496;28;45524;-63
2022/01/02 11:06:13;;;;;;;;;3.75;2.25;;;;;15.50;65.18;101563.53;5069948;27;46747;-62
2022/01/02 11:08:45;;;;;;;;;3.00;3.00;;;;;15.52;64.89;101577.53;5069694;28;45464;-62
2022/01/02 11:11:10;;;;;;;;;2.50;2.00;;;;;15.52;64.78;101574.88;5067012;28;45302;-63
2022/01/02 11:13:36;;;;;;;;;2.75;2.00;;;;;15.53;64.86;101574.78;5070278;27;45567;-63
2022/01/02 11:16:05;;;;;;;;;4.50;2.25;;;;;15.54;64.80;101567.66;5070285;28;46045;-63
2022/01/02 11:18:34;;;;;;;;;3.25;2.00;;;;;15.51;64.86;101563.41;5070539;27;45395;-63
2022/01/02 11:21:02;;;;;;;;;2.50;2.00;;;;;15.52;64.78;101566.91;5069614;27;45396;-63
2022/01/02 11:23:33;;;;;;;;;2.75;1.00;;;;;15.53;64.76;101564.16;5069935;28;45505;-62